Time;durP1;ratioP1;P1;durP2;ratioP2;P2;SDS_P1;SDS_P2;PMS_P1;PMS_P2;Temp;Humidity;BMP_temperature;BMP_pressure;BME280_temperature;BME280_humidity;BME280_pressure;Samples;Min_cycle;Max_cycle;Signal;HPM_P1;HPM_P2
2021/07/02 00:00:25;;;;;;;6.97;3.92;;;;;;;22.58;100.00;99759.73;1689903;84;21000;-40
2021/07/02 00:02:52;;;;;;;4.25;3.00;;;;;;;22.57;100.00;99758.02;1678582;83;20960;-41
2021/07/02 00:05:18;;;;;;;5.87;3.83;;;;;;;22.56;100.00;99759.59;1679536;84;21532;-42
2021/07/02 00:07:45;;;;;;;4.75;3.17;;;;;;;22.53;100.00;99751.78;1679804;83;20952;-41
2021/07/02 00:10:12;;;;;;;4.78;2.83;;;;;;;22.52;100.00;99749.59;1679809;83;21035;-40
2021/07/02 00:12:39;;;;;;;5.95;3.45;;;;;;;22.51;100.00;99748.44;1676671;83;21043;-39
2021/07/02 00:15:08;;;;;;;4.80;2.85;;;;;;;22.49;100.00;99741.81;1678600;84;21476;-40
2021/07/02 00:17:34;;;;;;;3.87;3.12;;;;;;;22.49;100.00;99735.55;1683692;83;20952;-41
2021/07/02 00:20:03;;;;;;;4.50;3.33;;;;;;;22.47;100.00;99733.84;1678477;84;20996;-41
2021/07/02 00:22:29;;;;;;;4.60;3.58;;;;;;;22.47;100.00;99731.64;1678894;84;21000;-41
2021/07/02 00:24:56;;;;;;;6.15;4.35;;;;;;;22.46;100.00;99740.83;1682042;83;20999;-40
2021/07/02 00:27:22;;;;;;;3.85;3.42;;;;;;;22.45;100.00;99730.98;1676915;84;21008;-40
2021/07/02 00:29:49;;;;;;;4.30;3.90;;;;;;;22.43;100.00;99731.70;1681578;84;21051;-39
2021/07/02 00:32:16;;;;;;;6.08;4.00;;;;;;;22.42;100.00;99739.50;1681893;84;20951;-41
2021/07/02 00:34:43;;;;;;;5.33;4.17;;;;;;;22.40;100.00;99739.70;1691628;83;21027;-41
2021/07/02 00:37:10;;;;;;;4.08;3.67;;;;;;;22.39;100.00;99736.64;1671426;85;20992;-40
2021/07/02 00:39:37;;;;;;;5.33;3.70;;;;;;;22.38;100.00;99737.69;1703557;83;21042;-41
2021/07/02 00:42:05;;;;;;;6.20;4.35;;;;;;;22.37;100.00;99740.05;1678588;84;20983;-41
2021/07/02 00:44:50;;;;;;;7.62;3.37;;;;;;;22.35;100.00;99743.48;1688814;83;20988;-40
2021/07/02 00:47:18;;;;;;;6.00;3.83;;;;;;;22.33;100.00;99737.91;1683853;84;20992;-42
2021/07/02 00:49:45;;;;;;;3.98;3.58;;;;;;;22.32;100.00;99730.77;1687931;83;20980;-41
2021/07/02 00:52:13;;;;;;;6.53;4.37;;;;;;;22.30;100.00;99729.62;1668923;84;20971;-42
2021/07/02 00:54:44;;;;;;;5.03;3.90;;;;;;;22.28;100.00;99734.38;1701953;83;20943;-42
2021/07/02 00:57:11;;;;;;;6.77;4.10;;;;;;;22.25;100.00;99730.66;1697323;84;21432;-41
2021/07/02 00:59:40;;;;;;;5.25;3.83;;;;;;;22.19;100.00;99711.87;1678409;85;20976;-41
2021/07/02 01:02:07;;;;;;;3.87;3.58;;;;;;;22.16;100.00;99719.00;1665400;84;20967;-42
2021/07/02 01:04:34;;;;;;;4.17;3.77;;;;;;;22.15;100.00;99712.39;1675000;84;21419;-42
2021/07/02 01:07:04;;;;;;;5.00;3.52;;;;;;;22.12;100.00;99713.59;1654984;85;20965;-39
2021/07/02 01:09:31;;;;;;;5.65;3.80;;;;;;;22.11;100.00;99715.99;1678229;85;21023;-40
2021/07/02 01:12:00;;;;;;;4.53;3.83;;;;;;;22.09;100.00;99715.33;1691385;83;20979;-40
2021/07/02 01:14:29;;;;;;;18.42;16.65;;;;;;;22.08;100.00;99706.86;1665297;84;21008;-40
2021/07/02 01:16:57;;;;;;;9.50;7.42;;;;;;;22.08;100.00;99707.38;1663544;84;20963;-40
2021/07/02 01:19:25;;;;;;;5.30;4.67;;;;;;;22.08;100.00;99704.16;1705079;84;20978;-42
2021/07/02 01:21:54;;;;;;;6.20;5.10;;;;;;;22.07;100.00;99707.88;1704521;83;21446;-41
2021/07/02 01:24:22;;;;;;;5.87;3.87;;;;;;;22.06;100.00;99704.00;1692094;83;21436;-40
2021/07/02 01:26:50;;;;;;;5.58;4.30;;;;;;;22.06;100.00;99691.79;1677949;84;20959;-40
2021/07/02 01:29:18;;;;;;;5.03;4.37;;;;;;;22.07;100.00;99696.18;1675789;84;21003;-40
2021/07/02 01:31:45;;;;;;;5.35;4.75;;;;;;;22.05;100.00;99692.31;1669298;84;21019;-42
2021/07/02 01:34:11;;;;;;;5.08;4.58;;;;;;;22.03;100.00;99696.55;1682061;84;20975;-40
2021/07/02 01:36:40;;;;;;;5.08;4.58;;;;;;;22.02;100.00;99692.65;1674362;84;20979;-41
2021/07/02 01:39:08;;;;;;;6.25;5.20;;;;;;;22.01;100.00;99694.53;1692644;83;20983;-42
2021/07/02 01:41:36;;;;;;;7.62;6.30;;;;;;;22.00;100.00;99700.16;1684659;84;21479;-43
2021/07/02 01:44:05;;;;;;;6.97;6.22;;;;;;;21.99;100.00;99698.45;1678275;84;20947;-42
2021/07/02 01:46:32;;;;;;;6.22;5.50;;;;;;;21.98;100.00;99705.75;1705176;83;21018;-40
2021/07/02 01:48:58;;;;;;;7.47;6.08;;;;;;;21.98;100.00;99707.62;1683848;84;21462;-42
2021/07/02 01:51:27;;;;;;;7.12;6.42;;;;;;;21.94;100.00;99713.91;1693669;84;20964;-39
2021/07/02 01:53:54;;;;;;;6.55;5.70;;;;;;;21.93;100.00;99717.67;1697243;84;20951;-39
2021/07/02 01:56:21;;;;;;;6.17;5.47;;;;;;;21.93;100.00;99724.97;1672437;84;21953;-40
2021/07/02 01:58:50;;;;;;;8.25;6.03;;;;;;;21.93;100.00;99731.23;1680677;84;20978;-43
2021/07/02 02:01:21;;;;;;;8.23;6.42;;;;;;;21.93;100.00;99735.31;1695887;83;21042;-42
2021/07/02 02:03:49;;;;;;;6.83;6.22;;;;;;;21.91;100.00;99733.80;1693700;84;20979;-41
2021/07/02 02:06:16;;;;;;;8.23;5.80;;;;;;;21.91;100.00;99732.45;1703547;83;20975;-41
2021/07/02 02:08:42;;;;;;;9.55;7.05;;;;;;;21.90;100.00;99724.82;1705043;83;20951;-40
2021/07/02 02:11:12;;;;;;;11.60;7.20;;;;;;;21.90;100.00;99722.11;1704695;82;20963;-41
2021/07/02 02:13:42;;;;;;;7.97;6.08;;;;;;;21.90;100.00;99723.47;1684657;83;21458;-42
2021/07/02 02:16:10;;;;;;;8.18;5.50;;;;;;;21.91;100.00;99721.59;1687710;83;21871;-41
2021/07/02 02:18:37;;;;;;;7.70;6.45;;;;;;;21.93;100.00;99730.41;1690152;83;20963;-40
2021/07/02 02:21:04;;;;;;;8.38;6.60;;;;;;;21.92;100.00;99736.83;1690849;83;21297;-41
2021/07/02 02:23:32;;;;;;;8.28;5.83;;;;;;;21.91;100.00;99740.06;1684188;83;21458;-42
2021/07/02 02:25:59;;;;;;;7.83;6.20;;;;;;;21.90;100.00;99746.53;1690261;83;21782;-42
2021/07/02 02:28:26;;;;;;;7.10;5.42;;;;;;;21.91;100.00;99750.08;1689632;83;20982;-42
2021/07/02 02:30:54;;;;;;;8.00;6.92;;;;;;;21.91;100.00;99746.02;1694777;83;21037;-41
2021/07/02 02:33:22;;;;;;;8.95;6.12;;;;;;;21.91;100.00;99756.34;1689521;83;20970;-39
2021/07/02 02:35:48;;;;;;;12.43;9.68;;;;;;;21.91;100.00;99754.16;1691232;83;21010;-39
2021/07/02 02:38:15;;;;;;;12.07;10.90;;;;;;;21.92;100.00;99757.19;1686232;84;20963;-40
2021/07/02 02:40:42;;;;;;;9.70;8.70;;;;;;;21.92;100.00;99758.02;1694065;83;21050;-40
2021/07/02 02:43:09;;;;;;;7.75;7.05;;;;;;;21.89;100.00;99752.97;1694004;84;21809;-40
2021/07/02 02:45:37;;;;;;;11.10;8.25;;;;;;;21.87;100.00;99753.66;1684511;85;22213;-41
2021/07/02 02:48:04;;;;;;;8.03;6.35;;;;;;;21.88;100.00;99760.78;1694689;83;21485;-43
2021/07/02 02:50:30;;;;;;;11.73;7.40;;;;;;;21.88;100.00;99770.28;1713065;83;20935;-41
2021/07/02 02:52:57;;;;;;;8.28;6.12;;;;;;;21.87;100.00;99762.31;1693384;83;20986;-40
2021/07/02 02:55:24;;;;;;;7.70;5.75;;;;;;;21.86;100.00;99763.34;1710244;82;21010;-42
2021/07/02 02:57:52;;;;;;;8.18;6.33;;;;;;;21.87;100.00;99778.07;1720670;83;21458;-42
2021/07/02 03:00:21;;;;;;;8.50;5.72;;;;;;;21.87;100.00;99779.95;1713601;82;20982;-39
2021/07/02 03:02:48;;;;;;;7.28;6.08;;;;;;;21.87;100.00;99782.66;1709276;82;20982;-42
2021/07/02 03:05:15;;;;;;;7.45;5.78;;;;;;;21.85;100.00;99777.92;1686320;83;21002;-41
2021/07/02 03:07:44;;;;;;;7.08;6.12;;;;;;;21.84;100.00;99782.51;1716475;82;20935;-43
2021/07/02 03:10:12;;;;;;;7.35;6.10;;;;;;;21.81;100.00;99786.42;1693862;83;20978;-40
2021/07/02 03:12:39;;;;;;;7.05;5.95;;;;;;;21.80;100.00;99785.27;1698543;83;21398;-42
2021/07/02 03:15:07;;;;;;;7.65;5.90;;;;;;;21.79;100.00;99780.84;1695028;83;20968;-40
2021/07/02 03:17:33;;;;;;;6.80;5.37;;;;;;;21.79;100.00;99784.91;1690273;84;21011;-41
2021/07/02 03:20:00;;;;;;;7.20;5.80;;;;;;;21.79;100.00;99790.34;1688342;84;21023;-41
2021/07/02 03:22:27;;;;;;;6.90;5.58;;;;;;;21.80;100.00;99792.89;1675480;84;20968;-42
2021/07/02 03:24:55;;;;;;;7.55;5.33;;;;;;;21.80;100.00;99791.53;1658783;84;21007;-43
2021/07/02 03:27:22;;;;;;;7.30;5.62;;;;;;;21.83;100.00;99793.88;1685417;84;21487;-41
2021/07/02 03:29:48;;;;;;;6.72;5.35;;;;;;;21.84;100.00;99796.08;1681778;84;20996;-44
2021/07/02 03:32:15;;;;;;;6.45;5.72;;;;;;;21.87;100.00;99797.58;1693811;84;21359;-42
2021/07/02 03:34:47;;;;;;;8.50;6.80;;;;;;;21.88;100.00;99792.51;1682116;83;21051;-41
2021/07/02 03:37:14;;;;;;;6.97;6.27;;;;;;;21.87;100.00;99797.06;1661023;84;20972;-41
2021/07/02 03:39:42;;;;;;;11.10;6.03;;;;;;;21.87;100.00;99794.87;1687201;84;21039;-40
2021/07/02 03:42:09;;;;;;;8.40;7.40;;;;;;;21.86;100.00;99800.81;1692512;84;21482;-40
2021/07/02 03:44:35;;;;;;;6.97;6.28;;;;;;;21.84;100.00;99793.36;1686489;83;21012;-41
2021/07/02 03:47:02;;;;;;;11.78;7.25;;;;;;;21.82;100.00;99798.11;1689232;83;20972;-41
2021/07/02 03:49:29;;;;;;;9.95;7.67;;;;;;;21.80;100.00;99792.05;1684746;83;21828;-41
2021/07/02 03:51:56;;;;;;;8.25;6.92;;;;;;;21.79;100.00;99795.25;1654142;84;20929;-41
2021/07/02 03:54:23;;;;;;;9.18;8.25;;;;;;;21.79;100.00;99798.48;1686522;83;21055;-40
2021/07/02 03:59:42;;;;;;;9.55;8.40;;;;;;;21.77;100.00;99797.81;1687155;84;20953;-40
2021/07/02 04:02:10;;;;;;;10.75;9.35;;;;;;;21.77;100.00;99805.46;1663369;84;21508;-41
2021/07/02 04:04:38;;;;;;;11.90;9.03;;;;;;;21.77;100.00;99809.53;1686153;84;20972;-41
2021/07/02 04:07:04;;;;;;;11.50;9.48;;;;;;;21.77;100.00;99799.16;1689194;84;20992;-41
2021/07/02 04:09:33;;;;;;;11.08;8.58;;;;;;;21.79;100.00;99809.33;1682762;84;20964;-42
2021/07/02 04:12:00;;;;;;;10.90;9.03;;;;;;;21.79;100.00;99813.41;1691052;83;20997;-43
2021/07/02 04:14:29;;;;;;;10.48;8.68;;;;;;;21.77;100.00;99820.38;1692129;83;20962;-42
2021/07/02 04:16:57;;;;;;;12.10;9.00;;;;;;;21.78;100.00;99820.70;1692137;83;20948;-43
2021/07/02 04:19:24;;;;;;;10.98;9.98;;;;;;;21.81;100.00;99819.50;1693436;83;20979;-42
2021/07/02 04:21:53;;;;;;;10.05;9.00;;;;;;;21.83;100.00;99814.23;1709862;83;20947;-41
2021/07/02 04:24:19;;;;;;;10.10;8.05;;;;;;;21.86;100.00;99810.31;1687370;83;21014;-44
2021/07/02 04:26:46;;;;;;;10.25;9.33;;;;;;;21.89;100.00;99813.18;1710865;82;21569;-41
2021/07/02 04:29:13;;;;;;;9.98;8.98;;;;;;;21.91;100.00;99810.62;1694053;83;20987;-43
2021/07/02 04:31:40;;;;;;;9.98;8.70;;;;;;;21.94;100.00;99812.97;1698322;83;21451;-49
2021/07/02 04:34:06;;;;;;;12.40;9.88;;;;;;;21.95;100.00;99803.82;1688499;83;20935;-40
2021/07/02 04:36:35;;;;;;;11.38;8.25;;;;;;;21.96;100.00;99799.23;1692883;83;20958;-43
2021/07/02 04:39:03;;;;;;;10.20;8.43;;;;;;;21.96;100.00;99802.78;1686704;83;20991;-45
2021/07/02 04:41:30;;;;;;;9.20;8.40;;;;;;;21.97;100.00;99801.78;1687809;83;21046;-46
2021/07/02 04:43:57;;;;;;;9.98;8.70;;;;;;;21.97;100.00;99799.55;1686946;83;21015;-39
2021/07/02 04:46:23;;;;;;;9.90;8.65;;;;;;;21.97;100.00;99802.27;1690767;83;21010;-40
2021/07/02 04:48:51;;;;;;;11.18;7.40;;;;;;;21.96;100.00;99809.57;1691373;83;20962;-40
2021/07/02 04:51:18;;;;;;;9.58;8.28;;;;;;;21.98;100.00;99808.88;1684016;83;20971;-41
2021/07/02 04:53:44;;;;;;;9.93;7.35;;;;;;;22.02;100.00;99811.58;1687601;83;21899;-40
2021/07/02 04:56:12;;;;;;;10.20;7.15;;;;;;;22.04;100.00;99805.44;1692627;83;20979;-39
2021/07/02 04:58:43;;;;;;;8.00;6.85;;;;;;;22.05;100.00;99799.52;1692859;83;21494;-39
2021/07/02 05:01:13;;;;;;;7.50;6.45;;;;;;;22.07;100.00;99800.16;1689677;83;20990;-42
2021/07/02 05:03:39;;;;;;;9.38;6.80;;;;;;;22.11;100.00;99808.28;1693106;83;20995;-40
2021/07/02 05:06:06;;;;;;;8.05;6.85;;;;;;;22.16;100.00;99809.11;1692875;84;21065;-41
2021/07/02 05:08:32;;;;;;;6.40;5.75;;;;;;;22.19;100.00;99808.73;1689320;83;21006;-40
2021/07/02 05:10:59;;;;;;;8.30;6.47;;;;;;;;;;1712891;82;20927;-41
2021/07/02 05:13:25;;;;;;;8.45;6.12;;;;;;;22.23;100.00;99810.11;1688360;83;21053;-40
2021/07/02 05:15:53;;;;;;;6.62;6.03;;;;;;;22.25;100.00;99812.97;1695473;83;20991;-41
2021/07/02 05:18:20;;;;;;;6.83;6.12;;;;;;;22.26;100.00;99813.81;1690273;84;21011;-44
2021/07/02 05:20:47;;;;;;;10.08;6.10;;;;;;;22.23;100.00;99809.59;1691055;84;21502;-41
2021/07/02 05:23:14;;;;;;;7.42;6.72;;;;;;;22.24;100.00;99815.34;1689872;83;20995;-41
2021/07/02 05:25:40;;;;;;;7.47;6.45;;;;;;;22.25;100.00;99812.97;1690286;83;20990;-42
2021/07/02 05:28:07;;;;;;;7.15;5.30;;;;;;;22.29;100.00;99819.39;1706393;82;20988;-41
2021/07/02 05:30:34;;;;;;;8.48;6.10;;;;;;;22.31;100.00;99820.06;1708982;83;21845;-41
2021/07/02 05:33:02;;;;;;;9.40;7.53;;;;;;;22.34;100.00;99825.12;1707811;82;20980;-41
2021/07/02 05:35:29;;;;;;;8.25;7.10;;;;;;;22.37;100.00;99832.89;1699317;83;21031;-41
2021/07/02 05:37:55;;;;;;;7.80;6.22;;;;;;;22.39;100.00;99834.92;1704852;83;20976;-41
2021/07/02 05:40:22;;;;;;;6.55;5.83;;;;;;;22.40;100.00;99833.39;1702924;83;21047;-42
2021/07/02 05:42:48;;;;;;;6.45;5.67;;;;;;;22.42;100.00;99834.55;1706024;82;20972;-41
2021/07/02 05:45:16;;;;;;;7.53;5.47;;;;;;;22.42;100.00;99837.27;1708480;82;20952;-41
2021/07/02 05:47:52;;;;;;;5.70;5.03;;;;;;;22.44;100.00;99839.30;1706917;83;20980;-41
2021/07/02 05:50:19;;;;;;;6.65;5.33;;;;;;;22.48;100.00;99837.91;1708942;82;21471;-42
2021/07/02 05:52:46;;;;;;;7.78;5.70;;;;;;;22.52;100.00;99840.58;1707709;82;20976;-42
2021/07/02 05:55:13;;;;;;;7.67;6.62;;;;;;;22.55;100.00;99843.44;1703784;83;21035;-42
2021/07/02 05:57:40;;;;;;;6.42;5.78;;;;;;;22.56;100.00;99837.00;1707522;82;21515;-43
2021/07/02 06:00:09;;;;;;;5.97;5.40;;;;;;;22.52;100.00;99833.78;1709403;82;20968;-42
2021/07/02 06:02:39;;;;;;;7.83;6.25;;;;;;;22.56;100.00;99834.28;1707675;82;21459;-42
2021/07/02 06:05:07;;;;;;;8.88;5.87;;;;;;;22.58;100.00;99837.15;1704527;82;20992;-43
2021/07/02 06:07:51;;;;;;;6.40;5.65;;;;;;;22.62;100.00;99841.17;1705917;82;20980;-40
2021/07/02 06:10:20;;;;;;;6.35;5.65;;;;;;;22.67;100.00;99836.55;1705605;83;20984;-45
2021/07/02 06:12:47;;;;;;;7.72;6.65;;;;;;;22.75;100.00;99839.70;1702801;82;20961;-45
2021/07/02 06:15:17;;;;;;;5.78;4.83;;;;;;;22.76;100.00;99835.45;1692984;82;20957;-42
2021/07/02 06:17:45;;;;;;;7.33;5.92;;;;;;;22.79;100.00;99838.31;1688594;82;21024;-40
2021/07/02 06:20:13;;;;;;;8.00;5.75;;;;;;;22.81;100.00;99827.59;1685926;82;21024;-43
2021/07/02 06:22:39;;;;;;;7.10;5.35;;;;;;;22.85;100.00;99824.81;1693231;82;21028;-42
2021/07/02 06:25:08;;;;;;;6.50;5.58;;;;;;;22.86;100.00;99819.73;1689759;84;21499;-40
2021/07/02 06:27:35;;;;;;;5.55;5.05;;;;;;;22.86;100.00;99820.25;1698812;82;21476;-41
2021/07/02 06:30:03;;;;;;;8.18;5.62;;;;;;;22.86;100.00;99813.45;1689811;82;21444;-41
2021/07/02 06:32:30;;;;;;;7.67;5.95;;;;;;;22.88;100.00;99821.75;1691603;83;21020;-44
2021/07/02 06:34:56;;;;;;;5.70;5.12;;;;;;;22.91;100.00;99821.90;1689440;84;20984;-44
2021/07/02 06:37:23;;;;;;;9.43;5.87;;;;;;;22.92;100.00;99820.86;1698172;82;20992;-43
2021/07/02 06:39:50;;;;;;;6.62;5.80;;;;;;;22.96;100.00;99826.78;1688863;84;20981;-45
2021/07/02 06:42:16;;;;;;;7.65;5.58;;;;;;;23.02;100.00;99821.98;1691887;82;21510;-44
2021/07/02 06:44:43;;;;;;;9.80;6.12;;;;;;;23.07;100.00;99823.10;1694439;82;20949;-45
2021/07/02 06:47:10;;;;;;;8.80;5.72;;;;;;;23.13;100.00;99817.95;1693840;82;20964;-43
2021/07/02 06:49:39;;;;;;;6.62;6.00;;;;;;;23.19;100.00;99813.14;1692839;82;20953;-45
2021/07/02 06:52:08;;;;;;;7.50;5.17;;;;;;;23.24;100.00;99811.53;1691841;83;20952;-39
2021/07/02 06:54:35;;;;;;;8.30;6.35;;;;;;;23.29;100.00;99802.30;1694632;82;20981;-40
2021/07/02 06:57:04;;;;;;;6.27;5.67;;;;;;;23.33;100.00;99804.98;1701926;82;20997;-42
2021/07/02 06:59:40;;;;;;;6.58;5.78;;;;;;;23.38;100.00;99800.83;1692836;83;20972;-43
2021/07/02 07:02:10;;;;;;;10.60;9.60;;;;;;;23.39;100.00;99802.02;1687204;83;21423;-45
2021/07/02 07:04:37;;;;;;;8.00;6.97;;;;;;;23.43;100.00;99807.38;1688976;83;21090;-48
2021/07/02 07:07:08;;;;;;;8.80;6.15;;;;;;;23.48;100.00;99800.85;1696363;83;21463;-47
2021/07/02 07:09:36;;;;;;;7.47;6.30;;;;;;;23.54;100.00;99797.91;1688634;83;21538;-48
2021/07/02 07:12:04;;;;;;;7.10;6.40;;;;;;;23.58;100.00;99805.17;1692105;83;21036;-48
2021/07/02 07:14:32;;;;;;;5.83;5.28;;;;;;;23.60;100.00;99807.19;1706814;83;21029;-46
2021/07/02 07:17:02;;;;;;;6.35;5.15;;;;;;;23.66;100.00;99799.11;1710457;83;21009;-43
2021/07/02 07:19:29;;;;;;;6.05;5.10;;;;;;;23.71;100.00;99789.86;1705130;83;21033;-43
2021/07/02 07:21:57;;;;;;;6.03;5.42;;;;;;;23.76;100.00;99796.09;1704751;83;21013;-46
2021/07/02 07:24:25;;;;;;;6.15;5.28;;;;;;;23.79;100.00;99790.30;1708132;83;21038;-42
2021/07/02 07:26:52;;;;;;;8.43;6.03;;;;;;;23.81;100.00;99788.20;1707709;83;20954;-47
2021/07/02 07:29:19;;;;;;;8.38;6.17;;;;;;;23.82;100.00;99780.90;1705145;83;20986;-44
2021/07/02 07:31:45;;;;;;;8.28;5.70;;;;;;;23.83;100.00;99784.77;1704560;83;21033;-55
2021/07/02 07:34:13;;;;;;;5.78;5.25;;;;;;;23.82;100.00;99777.66;1704304;83;20977;-46
2021/07/02 07:36:41;;;;;;;7.40;5.92;;;;;;;23.82;100.00;99769.49;1702284;83;21438;-48
2021/07/02 07:39:08;;;;;;;6.58;5.90;;;;;;;23.85;100.00;99779.14;1710258;83;20978;-49
2021/07/02 07:41:35;;;;;;;13.70;12.40;;;;;;;23.86;100.00;99777.58;1699339;83;21026;-46
2021/07/02 07:44:02;;;;;;;9.08;6.65;;;;;;;23.87;100.00;99779.80;1713804;82;20974;-43
2021/07/02 07:46:28;;;;;;;5.75;5.12;;;;;;;23.90;100.00;99776.16;1709968;83;20978;-42
2021/07/02 07:48:56;;;;;;;7.28;6.05;;;;;;;23.95;100.00;99786.48;1684376;83;21007;-46
2021/07/02 07:52:15;;;;;;;7.42;6.55;;;;;;;24.00;100.00;99798.16;1688061;84;20994;-49
2021/07/02 07:54:40;;;;;;;6.47;5.75;;;;;;;24.04;100.00;99798.07;1631093;86;21035;-49
2021/07/02 07:57:07;;;;;;;5.85;5.25;;;;;;;24.06;100.00;99787.84;1629845;86;21445;-48
2021/07/02 07:59:34;;;;;;;7.37;6.30;;;;;;;24.07;100.00;99790.38;1630534;86;21001;-45
2021/07/02 08:02:01;;;;;;;6.70;6.00;;;;;;;24.10;100.00;99789.98;1630286;86;21512;-45
2021/07/02 08:04:28;;;;;;;6.80;5.42;;;;;;;24.12;100.00;99792.52;1645420;85;21008;-47
2021/07/02 08:06:56;;;;;;;7.20;5.65;;;;;;;24.15;100.00;99790.77;1672860;84;21082;-47
2021/07/02 08:09:23;;;;;;;8.50;5.42;;;;;;;24.21;100.00;99793.23;1668626;84;21490;-47
2021/07/02 08:11:49;;;;;;;7.28;5.58;;;;;;;24.24;100.00;99795.06;1666927;84;21472;-44
2021/07/02 08:14:16;;;;;;;6.53;5.72;;;;;;;24.24;100.00;99799.64;1654721;84;20983;-46
2021/07/02 08:16:43;;;;;;;6.65;5.50;;;;;;;24.25;100.00;99808.98;1643878;84;20994;-45
2021/07/02 08:19:10;;;;;;;11.10;9.95;;;;;;;24.28;100.00;99809.95;1642447;86;21470;-47
2021/07/02 08:21:36;;;;;;;7.80;6.65;;;;;;;24.33;100.00;99809.38;1642336;86;21019;-45
2021/07/02 08:24:07;;;;;;;9.43;5.60;;;;;;;24.38;100.00;99807.73;1646612;85;20987;-43
2021/07/02 08:26:37;;;;;;;7.92;4.67;;;;;;;24.44;100.00;99809.36;1640777;86;21521;-43
2021/07/02 08:29:23;;;;;;;8.78;5.30;;;;;;;24.47;100.00;99813.95;1633174;86;20992;-44
2021/07/02 08:31:50;;;;;;;6.22;5.35;;;;;;;24.49;100.00;99812.37;1665012;84;21003;-48
2021/07/02 08:34:17;;;;;;;6.90;6.20;;;;;;;24.52;100.00;99818.28;1725944;81;20965;-46
2021/07/02 08:36:45;;;;;;;7.40;4.85;;;;;;;24.56;100.00;99814.64;1722650;81;21523;-45
2021/07/02 08:39:12;;;;;;;5.22;4.72;;;;;;;24.61;100.00;99808.91;1723739;81;20957;-48
2021/07/02 08:41:39;;;;;;;13.03;10.25;;;;;;;24.65;100.00;99801.20;1717503;82;21031;-46
2021/07/02 08:44:07;;;;;;;9.08;7.92;;;;;;;24.68;100.00;99804.89;1725236;81;20984;-47
2021/07/02 08:46:35;;;;;;;7.45;6.75;;;;;;;24.72;100.00;99809.41;1720322;82;20956;-51
2021/07/02 08:49:02;;;;;;;10.53;7.47;;;;;;;24.74;100.00;99805.97;1722370;81;21016;-49
2021/07/02 08:51:29;;;;;;;10.35;6.22;;;;;;;24.74;100.00;99805.97;1699352;81;21000;-50
2021/07/02 08:53:56;;;;;;;5.28;4.78;;;;;;;24.75;100.00;99811.77;1721132;81;21495;-46
2021/07/02 08:56:23;;;;;;;6.90;6.20;;;;;;;24.74;100.00;99810.89;1730911;81;20941;-49
2021/07/02 08:58:50;;;;;;;6.12;4.87;;;;;;;24.74;100.00;99810.06;1728735;81;20961;-48
2021/07/02 09:01:36;;;;;;;6.60;6.00;;;;;;;24.75;100.00;99813.13;1729067;81;20988;-47
2021/07/02 09:04:35;;;;;;;7.97;5.25;;;;;;;24.73;100.00;99813.84;1721611;82;21820;-47
2021/07/02 09:07:10;;;;;;;6.90;5.55;;;;;;;24.71;100.00;99818.11;1688951;83;20968;-48
2021/07/02 09:09:59;;;;;;;6.40;4.80;;;;;;;24.70;100.00;99818.33;1685548;84;20937;-45
2021/07/02 09:12:31;;;;;;;6.05;5.45;;;;;;;24.70;100.00;99815.08;1686789;83;21071;-52
2021/07/02 09:15:13;;;;;;;12.63;7.72;;;;;;;24.70;100.00;99821.89;1677153;84;21004;-48
2021/07/02 09:17:59;;;;;;;6.78;5.90;;;;;;;24.73;100.00;99812.48;1723866;81;20957;-44
2021/07/02 09:20:35;;;;;;;6.15;5.55;;;;;;;24.81;100.00;99809.59;1727565;81;21464;-47
2021/07/02 09:23:13;;;;;;;7.65;6.85;;;;;;;24.87;100.00;99796.52;1722270;81;20956;-46
2021/07/02 09:25:46;;;;;;;6.75;5.97;;;;;;;24.96;100.00;99802.68;1718541;82;21023;-49
2021/07/02 09:28:12;;;;;;;7.53;6.28;;;;;;;25.02;100.00;99797.77;1721316;82;20976;-49
2021/07/02 09:30:43;;;;;;;6.05;5.40;;;;;;;25.07;100.00;99796.66;1717764;81;20976;-46
2021/07/02 09:33:12;;;;;;;5.65;5.15;;;;;;;25.10;100.00;99791.31;1719284;81;21482;-46
2021/07/02 09:35:49;;;;;;;7.90;5.47;;;;;;;25.12;100.00;99796.05;1722648;81;20984;-48
2021/07/02 09:38:18;;;;;;;7.87;5.80;;;;;;;25.12;100.00;99800.15;1725304;81;21483;-53
2021/07/02 09:40:47;;;;;;;7.50;5.83;;;;;;;25.13;100.00;99805.94;1717550;81;21094;-48
2021/07/02 09:43:17;;;;;;;6.80;5.72;;;;;;;25.12;100.00;99805.08;1726144;81;20964;-50
2021/07/02 09:46:01;;;;;;;7.75;6.95;;;;;;;25.13;100.00;99806.77;1722793;82;21016;-56
2021/07/02 09:48:28;;;;;;;6.15;5.55;;;;;;;25.15;100.00;99810.64;1723230;81;21020;-47
2021/07/02 09:51:03;;;;;;;7.15;6.45;;;;;;;25.19;100.00;99817.43;1720312;82;20992;-53
2021/07/02 09:53:33;;;;;;;7.05;6.15;;;;;;;25.21;100.00;99822.17;1717735;82;20961;-49
2021/07/02 09:56:04;;;;;;;7.70;5.80;;;;;;;25.20;100.00;99815.88;1732153;81;21507;-45
2021/07/02 09:58:39;;;;;;;6.15;5.55;;;;;;;25.21;100.00;99821.64;1732629;81;20972;-49
2021/07/02 10:01:12;;;;;;;6.92;6.20;;;;;;;25.23;100.00;99819.56;1726328;81;20953;-55
2021/07/02 10:03:41;;;;;;;7.62;6.20;;;;;;;25.23;100.00;99815.47;1727592;82;21394;-45
2021/07/02 10:06:20;;;;;;;6.92;5.35;;;;;;;25.20;100.00;99817.24;1728300;82;20992;-44
2021/07/02 10:08:48;;;;;;;8.08;5.42;;;;;;;25.18;100.00;99807.05;1724165;82;20953;-48
2021/07/02 10:11:15;;;;;;;7.58;5.50;;;;;;;25.14;100.00;99804.36;1723180;81;21455;-53
2021/07/02 10:13:46;;;;;;;9.25;6.87;;;;;;;25.14;100.00;99806.25;1719712;81;21003;-45
2021/07/02 10:16:13;;;;;;;6.45;5.70;;;;;;;25.12;100.00;99806.97;1727429;81;20940;-43
2021/07/02 10:18:54;;;;;;;7.08;5.95;;;;;;;25.11;100.00;99806.12;1732390;82;21365;-45
2021/07/02 10:21:27;;;;;;;5.90;5.37;;;;;;;25.08;100.00;99799.72;1727591;80;21051;-50
2021/07/02 10:24:00;;;;;;;9.10;5.95;;;;;;;25.11;100.00;99796.58;1734828;81;21027;-50
2021/07/02 10:26:28;;;;;;;7.95;5.95;;;;;;;25.12;100.00;99810.53;1712809;82;20929;-47
2021/07/02 10:28:56;;;;;;;7.50;5.53;;;;;;;25.14;100.00;99807.09;1730379;82;20988;-50
2021/07/02 10:31:23;;;;;;;6.12;5.55;;;;;;;25.19;100.00;99810.08;1735423;82;20972;-53
2021/07/02 10:33:55;;;;;;;6.15;5.60;;;;;;;25.26;100.00;99805.52;1727700;80;20997;-46
2021/07/02 10:36:23;;;;;;;6.28;5.47;;;;;;;25.33;100.00;99800.10;1685677;82;20989;-51
2021/07/02 10:38:52;;;;;;;8.15;7.30;;;;;;;25.40;100.00;99801.48;1741554;80;21483;-42
2021/07/02 10:41:25;;;;;;;6.00;5.40;;;;;;;25.44;100.00;99801.41;1733815;81;20996;-45
2021/07/02 10:44:11;;;;;;;6.05;5.40;;;;;;;25.46;100.00;99800.69;1735759;82;21027;-45
2021/07/02 10:46:40;;;;;;;7.08;4.70;;;;;;;25.47;100.00;99797.73;1738566;80;20912;-48
2021/07/02 10:49:10;;;;;;;6.45;5.45;;;;;;;25.50;100.00;99792.39;1736284;82;21032;-42
2021/07/02 10:51:47;;;;;;;5.30;4.90;;;;;;;25.53;100.00;99792.02;1740333;80;20940;-41
2021/07/02 10:54:20;;;;;;;8.03;5.95;;;;;;;25.53;100.00;99791.14;1735532;80;20929;-42
2021/07/02 10:56:59;;;;;;;5.45;4.92;;;;;;;25.54;100.00;99786.02;1733800;81;21004;-42
2021/07/02 10:59:44;;;;;;;4.97;4.55;;;;;;;25.57;100.00;99784.25;1735334;81;20928;-43
2021/07/02 11:02:15;;;;;;;5.90;4.78;;;;;;;25.59;100.00;99782.16;1732412;81;20908;-42
2021/07/02 11:04:44;;;;;;;5.83;4.70;;;;;;;25.60;100.00;99776.52;1734520;82;21000;-42
2021/07/02 11:07:22;;;;;;;6.22;5.28;;;;;;;25.59;100.00;99775.34;1738259;82;20948;-45
2021/07/02 11:10:01;;;;;;;6.33;5.45;;;;;;;25.59;100.00;99769.88;1735869;82;20975;-41
2021/07/02 11:12:35;;;;;;;5.30;4.80;;;;;;;25.58;100.00;99764.95;1735162;82;20980;-41
2021/07/02 11:15:15;;;;;;;7.17;4.58;;;;;;;25.58;100.00;99757.30;1736059;80;21472;-46
2021/07/02 11:17:49;;;;;;;6.45;4.60;;;;;;;25.58;100.00;99758.13;1729438;81;20976;-41
2021/07/02 11:20:25;;;;;;;5.17;4.72;;;;;;;25.58;100.00;99762.22;1721994;81;20972;-43
2021/07/02 11:23:03;;;;;;;5.72;5.12;;;;;;;25.57;100.00;99761.05;1729411;81;20944;-41
2021/07/02 11:28:10;;;;;;;10.25;9.30;;;;;;;25.58;100.00;99745.02;1731215;82;20961;-47
2021/07/02 11:30:43;;;;;;;6.25;5.65;;;;;;;25.62;100.00;99752.56;1727495;81;20980;-46
2021/07/02 11:33:15;;;;;;;5.92;4.70;;;;;;;25.68;100.00;99750.92;1725604;81;21459;-44
2021/07/02 11:35:55;;;;;;;4.97;4.30;;;;;;;25.73;100.00;99748.41;1730740;81;20996;-46
2021/07/02 11:40:11;;;;;;;4.97;3.87;;;;;;;25.88;100.00;99738.72;1758248;79;23025;-45